Accueil
METAR-TAF:

METAR-TAF

Aéroports :

Minneapolis, Minnesota, États-Unis

Aéroport international de Minneapolis-Saint-Paul

latitude: 44-52-59N, longitude: 093-13-44W, altitude: 256 m

Observation

Le bulletin a été fait il y a 16 minutes, à 23:53 UTC
Vent 8 kt de sud
Température 10°C
Humidité 32%
Pression 1030 hPa
Visibilité: 16.1 km
Nuages épars à une hauteur de 15000 ft
Ciel couvert à une hauteur de 25000 ft

METAR: KMSP 202353Z 17008KT 10SM SCT150 OVC250 10/M06 A3043 RMK AO2 SLP313 4/001 T01001056 10117 20089 55003

Heure: 19:09 (00:09 UTC)

Prévision

Le bulletin a été fait il y a 49 minutes, à 23:20 UTC
Prévision valable du 21 à 00 UTC au 22 à 06 UTC
Vent 3 kt de direction variable
Visibilité: 10 km
Nuages fragmentés à une hauteur de 15000 ft
A partir de 21 à 1700 UTC
Vent 5 kt de sud/sud-est
Visibilité: 10 km
Ciel clair

TAF: KMSP 202320Z 2100/2206 VRB03KT P6SM BKN150 FM211700 16005KT P6SM SKC

Observations et prévisions météorologiques de plus de 4000 aéroports (messages METAR et TAF).

Les stations disponibles sont représentées par des disques jaunes et rouges sur la carte.

Passer la souris dessus pour voir le nom de la station.

Cliquer dessus pour voir les observations et prévisions météorologiques.

Pour changer de carte: cliquez sur les boutons verts avec une croix noire pour zoomer, sur le bouton vert avec un tiret pour effectuer un zoom arrière, ou sur les flèches vertes pour les cartes adjacentes.


METAR-TAF: